createdAt,value
2024-01-06T00:09:10.959Z,5.7
2024-01-06T00:19:12.500Z,5.7
2024-01-06T00:29:14.125Z,5.7
2024-01-06T00:39:15.587Z,5.7
2024-01-06T05:20:02.968Z,4.1
2024-01-06T06:00:09.122Z,3.8
2024-01-06T06:10:11.236Z,3.7
2024-01-06T06:20:13.190Z,3.7
2024-01-06T06:30:14.342Z,3.7
2024-01-06T06:40:16.050Z,3.6
2024-01-06T06:50:17.877Z,3.4
2024-01-06T07:10:21.364Z,3.1
2024-01-06T07:20:23.176Z,3
2024-01-06T07:40:25.870Z,2.9
2024-01-06T07:50:27.908Z,2.8
2024-01-06T08:00:29.904Z,2.7
2024-01-06T08:10:31.236Z,2.7
2024-01-06T08:20:32.585Z,2.5
2024-01-06T08:30:34.457Z,2.6
2024-01-06T08:40:35.713Z,2.5
2024-01-06T10:51:40.665Z,2.1
2024-01-06T15:11:45.148Z,1.2
2024-01-06T15:51:52.535Z,1.2
2024-01-06T16:11:55.601Z,1.2
2024-01-06T16:21:59.254Z,1.2
2024-01-06T16:31:58.139Z,1.2
2024-01-06T16:52:01.182Z,1.2
2024-01-06T17:02:02.381Z,1.2
2024-01-06T17:12:04.244Z,1.2
2024-01-06T17:22:05.451Z,1.2
2024-01-06T17:32:07.133Z,1.2
2024-01-06T17:42:09.113Z,1.1
2024-01-06T17:52:10.390Z,1.1
2024-01-06T18:02:12.187Z,1.1
2024-01-06T18:12:14.195Z,1.1
2024-01-06T18:22:15.659Z,1.1
2024-01-06T18:32:16.839Z,1.1
2024-01-06T18:42:18.800Z,1.1
2024-01-06T18:52:20.209Z,1.1
2024-01-06T19:02:21.943Z,1.1
2024-01-06T19:12:24.021Z,1.1
2024-01-06T19:22:25.435Z,1
2024-01-06T19:42:28.168Z,1.1
2024-01-06T19:52:30.268Z,1
2024-01-06T20:02:32.195Z,1
2024-01-06T20:12:33.789Z,1
2024-01-06T20:22:34.854Z,1.1
2024-01-06T20:32:39.113Z,1
2024-01-06T20:42:38.131Z,1
2024-01-06T20:52:39.217Z,1.1
2024-01-06T21:02:41.066Z,1
2024-01-06T21:12:42.729Z,1
2024-01-06T21:22:44.306Z,1
2024-01-06T21:32:46.027Z,1
2024-01-06T21:42:47.200Z,0.9
2024-01-06T21:52:48.543Z,0.9
2024-01-06T22:02:49.681Z,1
2024-01-06T22:12:51.661Z,1
2024-01-06T22:22:52.951Z,1
2024-01-06T22:32:54.870Z,1
2024-01-06T22:42:55.993Z,1
2024-01-06T22:52:57.744Z,1
2024-01-06T23:02:59.310Z,0.9
2024-01-06T23:13:01.164Z,0.9
2024-01-06T23:23:02.177Z,0.9
2024-01-06T23:43:07.473Z,0.9
2024-01-06T23:53:06.546Z,0.9
